Latest Weather Observations for Gabo Island

IDN60801

Issued at 7:12 am EST Wednesday 22 May 2019 (issued every 10 minutes, with the page automatically refreshed every 10 minutes)

About weather observations | Map of weather stations | Latest weather observations for NSW | Other Formats
Station Details ID: 084016 Name: GABO ISLAND LIGHTHOUSE Lat: -37.57 Lon: 149.92 Height: 15.2 m
Data from the previous 72 hours. | See also: Recent months at Gabo Island
Date/Time
EST
Temp
°C
App
Temp
°C
Dew
Point
°C
Rel
Hum
%
Delta-T
°C
Wind Press
QNH
hPa
Press
MSL
hPa
Rain since
9am
mm
Dir  Spd
km/h
Gust
km/h
Spd
kts
Gust
kts
22/07:00am 13.7 11.1 10.8 83 1.5 WNW 15 17 8 9 1027.5 1027.5 0.0
22/06:30am 13.8 10.8 10.5 80 1.7 NW 17 17 9 9 1027.2 1027.2 0.0
22/06:00am 13.3 10.3 10.6 84 1.4 WNW 17 17 9 9 1026.8 1026.8 0.0
22/05:30am 13.3 10.7 10.6 84 1.4 WNW 15 17 8 9 1026.5 1026.5 0.0
22/05:00am 14.2 11.5 10.3 77 2.0 NW 15 17 8 9 1026.3 1026.3 0.0
22/04:30am 14.2 11.7 9.7 74 2.3 NW 13 17 7 9 1026.1 1026.1 0.0
22/04:00am 14.2 11.3 9.7 74 2.3 NW 15 17 8 9 1026.0 1026.0 0.0
22/03:30am 14.1 11.2 9.6 74 2.3 NW 15 17 8 9 1026.0 1026.0 0.0
22/03:00am 13.7 11.5 10.8 83 1.5 WNW 13 17 7 9 1026.0 1026.0 0.0
22/02:30am 13.8 11.5 10.5 80 1.7 WNW 13 15 7 8 1025.8 1025.8 0.0
22/02:00am 13.9 11.3 10.8 81 1.6 WNW 15 15 8 8 1025.8 1025.8 0.0
22/01:30am 14.5 12.3 10.9 79 1.9 WNW 13 15 7 8 1025.5 1025.5 0.0
22/01:00am 14.9 12.6 10.3 74 2.4 WNW 13 15 7 8 1025.5 1025.5 0.0
22/12:30am 15.0 12.7 10.4 74 2.4 NW 13 17 7 9 1025.6 1025.6 0.0
22/12:00am 14.9 12.3 10.7 76 2.2 NW 15 17 8 9 1025.7 1025.7 0.0
 
Date/Time
EST
Temp
°C
App
Temp
°C
Dew
Point
°C
Rel
Hum
%
Delta-T
°C
Wind Press
QNH
hPa
Press
MSL
hPa
Rain since
9am
mm
Dir  Spd
km/h
Gust
km/h
Spd
kts
Gust
kts
21/11:30pm 14.8 12.6 10.8 77 2.1 NW 13 15 7 8 1025.6 1025.6 0.0
21/11:00pm 15.1 12.8 10.5 74 2.4 NW 13 15 7 8 1025.6 1025.6 0.0
21/10:30pm 14.5 12.3 10.9 79 1.9 WNW 13 15 7 8 1025.4 1025.4 0.0
21/10:00pm 14.9 12.7 10.7 76 2.2 WNW 13 15 7 8 1025.3 1025.3 0.0
21/09:30pm 15.3 13.1 10.7 74 2.4 WNW 13 15 7 8 1025.3 1025.3 0.0
21/09:00pm 15.2 12.9 10.4 73 2.5 NW 13 17 7 9 1025.1 1025.1 0.0
21/08:30pm 14.8 12.4 10.2 74 2.4 NW 13 15 7 8 1025.0 1025.0 0.0
21/08:00pm 14.7 12.5 10.7 77 2.1 NW 13 17 7 9 1024.9 1024.9 0.0
21/07:30pm 14.6 13.0 11.6 82 1.6 NW 11 13 6 7 1024.7 1024.7 0.0
21/07:00pm 14.9 13.0 11.9 82 1.6 W 13 15 7 8 1024.5 1024.5 0.0
21/06:30pm 16.1 13.6 11.2 72 2.6 WSW 15 19 8 10 1024.2 1024.2 0.0
21/06:00pm 16.1 13.6 11.0 72 2.7 SW 15 17 8 9 1023.9 1023.9 0.0
21/05:30pm 16.4 13.6 11.4 72 2.7 SW 17 19 9 10 1023.5 1023.5 0.0
21/05:00pm 16.6 14.2 11.4 71 2.8 SW 15 17 8 9 1023.2 1023.2 0.0
21/04:30pm 16.7 14.2 11.1 69 3.0 SW 15 17 8 9 1023.1 1023.1 0.0
21/04:00pm 16.8 14.0 11.4 70 2.9 SSW 17 20 9 11 1023.0 1023.0 0.0
21/03:30pm 17.0 14.4 11.9 72 2.8 SSW 17 20 9 11 1022.7 1022.7 0.0
21/03:00pm 17.2 13.9 11.5 69 3.1 SSW 20 24 11 13 1022.5 1022.5 0.0
21/02:30pm 17.1 12.9 11.1 68 3.2 SSW 24 28 13 15 1022.5 1022.5 0.0
21/02:00pm 17.1 14.4 12.8 76 2.4 SW 19 20 10 11 1022.4 1022.4 0.0
21/01:30pm 17.3 14.2 13.4 78 2.2 SSW 22 26 12 14 1022.5 1022.5 0.0
21/01:00pm 17.4 13.9 12.3 72 2.8 SSW 22 28 12 15 1022.5 1022.5 0.0
21/12:30pm 17.6 13.4 12.3 71 2.9 SW 26 30 14 16 1022.7 1022.7 0.0
21/12:00pm 17.7 15.3 12.7 72 2.8 SW 17 22 9 12 1022.7 1022.7 0.0
21/11:30am 17.6 15.7 13.1 75 2.5 WSW 15 19 8 10 1023.0 1023.0 0.0
21/11:00am 17.6 15.0 12.1 70 3.0 W 17 20 9 11 1023.1 1023.1 0.0
21/10:30am 18.0 15.8 12.0 68 3.3 W 15 17 8 9 1023.1 1023.1 0.0
21/10:00am 17.7 16.0 12.5 71 2.9 W 13 17 7 9 1022.9 1022.9 0.0
21/09:30am 17.4 15.0 11.3 67 3.3 WNW 15 17 8 9 1022.7 1022.7 0.0
21/09:00am 17.8 15.6 10.7 63 3.8 NW 13 17 7 9 1022.6 1022.6 0.0
21/08:30am 16.5 14.4 11.1 70 2.9 NW 13 17 7 9 1022.5 1022.5 0.0
21/08:00am 15.7 13.2 11.2 74 2.4 WNW 15 15 8 8 1022.1 1022.1 0.0
21/07:30am 15.7 12.4 9.5 66 3.2 NW 17 17 9 9 1021.7 1021.7 0.0
21/07:00am 15.1 11.8 9.5 69 2.9 NW 17 20 9 11 1021.5 1021.5 0.0
21/06:30am 15.7 12.1 10.6 71 2.7 W 20 24 11 13 1021.2 1021.2 0.0
21/06:00am 16.3 12.0 10.9 70 2.9 WSW 24 30 13 16 1020.9 1020.9 0.0
21/05:49am 16.0 10.9 10.5 70 2.9 WSW 28 37 15 20 1020.7 1020.7 0.0
21/05:30am 16.3 13.3 9.3 63 3.6 NNW 15 19 8 10 1020.1 1020.1 0.0
21/05:00am 15.3 12.6 10.3 72 2.6 NW 15 19 8 10 1019.9 1019.9 0.0
21/04:30am 14.3 12.2 11.1 81 1.7 W 13 15 7 8 1019.7 1019.7 0.0
21/04:00am 16.1 13.9 10.8 71 2.8 NW 13 15 7 8 1019.8 1019.8 0.0
21/03:30am 15.7 13.4 10.6 71 2.7 NW 13 15 7 8 1019.8 1019.8 0.0
21/03:00am 15.6 13.4 10.9 73 2.5 NW 13 15 7 8 1019.7 1019.7 0.0
21/02:30am 15.9 13.4 11.2 73 2.5 WNW 15 19 8 10 1019.8 1019.8 0.0
21/02:00am 16.3 13.7 10.6 69 3.0 WNW 15 17 8 9 1019.7 1019.7 0.0
21/01:30am 17.4 13.9 8.6 56 4.5 NW 17 20 9 11 1019.7 1019.7 0.0
21/01:00am 17.0 13.8 10.0 63 3.7 NW 17 28 9 15 1019.7 1019.7 0.0
21/12:30am 16.5 14.0 11.1 70 2.9 NW 15 17 8 9 1020.3 1020.3 0.0
21/12:00am 16.4 14.1 10.3 67 3.2 NW 13 17 7 9 1020.5 1020.5 0.0
 
Date/Time
EST
Temp
°C
App
Temp
°C
Dew
Point
°C
Rel
Hum
%
Delta-T
°C
Wind Press
QNH
hPa
Press
MSL
hPa
Rain since
9am
mm
Dir  Spd
km/h
Gust
km/h
Spd
kts
Gust
kts
20/11:30pm 16.6 14.9 11.2 70 2.9 NW 11 15 6 8 1020.7 1020.7 0.0
20/11:00pm 16.2 14.0 10.9 71 2.8 WNW 13 17 7 9 1020.8 1020.8 0.0
20/10:30pm 15.3 14.8 12.6 84 1.5 WNW 7 9 4 5 1020.9 1020.9 0.0
20/10:00pm 15.2 14.3 11.5 78 2.0 NNE 7 11 4 6 1020.9 1020.9 0.0
20/09:30pm 16.1 14.6 11.9 76 2.3 NNE 11 15 6 8 1020.8 1020.8 0.0
20/09:00pm 16.2 14.7 13.0 81 1.8 NNE 13 17 7 9 1021.0 1021.0 0.0
20/08:30pm 16.6 14.2 12.8 78 2.1 NNE 17 20 9 11 1020.8 1020.8 0.0
20/08:00pm 16.5 14.4 12.5 77 2.2 NNE 15 19 8 10 1021.2 1021.2 0.0
20/07:30pm 17.1 14.3 11.4 69 3.1 NNE 17 20 9 11 1021.1 1021.1 0.0
20/07:00pm 15.9 13.7 12.2 78 2.0 N 15 17 8 9 1021.0 1021.0 0.0
20/06:30pm 16.2 14.3 13.0 81 1.8 N 15 19 8 10 1021.1 1021.1 0.0
20/06:00pm 16.5 14.7 13.3 81 1.8 NNE 15 17 8 9 1020.8 1020.8 0.0
20/05:30pm 16.5 14.7 13.3 81 1.8 NNE 15 17 8 9 1020.8 1020.8 0.0
20/05:00pm 16.7 15.3 13.3 80 1.9 NNE 13 17 7 9 1020.8 1020.8 0.0
20/04:30pm 17.0 15.7 13.6 80 1.9 NNE 13 15 7 8 1020.8 1020.8 0.0
20/04:00pm 17.4 16.0 13.3 77 2.3 NNE 13 17 7 9 1020.8 1020.8 0.0
20/03:30pm 18.1 15.5 13.1 72 2.8 NNE 19 20 10 11 1020.7 1020.7 0.0
20/03:00pm 19.0 16.7 13.1 68 3.3 NE 17 20 9 11 1020.9 1020.9 0.0
20/02:30pm 19.8 18.8 13.3 66 3.7 NNE 11 15 6 8 1020.9 1020.9 0.0
20/02:00pm 19.3 19.3 14.1 72 3.0 NNE 7 9 4 5 1021.0 1021.0 0.0
20/01:30pm 19.0 19.1 13.9 72 2.9 NE 6 7 3 4 1021.2 1021.2 0.0
20/01:00pm 19.1 19.8 13.5 70 3.2 ENE 2 7 1 4 1021.5 1021.5 0.0
20/12:30pm 18.4 18.3 13.3 72 2.9 ENE 6 6 3 3 1021.8 1021.8 0.0
20/12:00pm 18.1 17.4 11.9 67 3.4 E 7 9 4 5 1022.3 1022.3 0.0
20/11:30am 20.3 18.8 10.7 54 5.2 NW 9 15 5 8 1022.9 1022.9 0.0
20/11:00am 19.4 18.1 11.3 59 4.4 WNW 9 13 5 7 1023.3 1023.3 0.0
20/10:30am 16.8 16.5 12.8 77 2.2 SSW 6 7 3 4 1023.7 1023.7 0.0
20/10:00am 16.2 15.6 12.4 78 2.1 SSW 7 9 4 5 1024.1 1024.1 0.0
20/09:30am 15.5 15.0 12.2 81 1.8 SSW 6 9 3 5 1024.4 1024.4 0.0
20/09:00am 15.8 16.1 12.3 80 1.9 WSW 2 9 1 5 1024.4 1024.4 0.0
20/08:30am 15.3 16.1 12.7 84 1.4 CALM 0 0 0 0 1024.5 1024.5 0.0
20/08:00am 13.8 13.6 11.7 87 1.1 ENE 4 9 2 5 1024.6 1024.6 0.0
20/07:30am 12.6 12.8 10.7 88 1.0 CALM 0 0 0 0 1024.6 1024.6 0.0
20/07:00am 11.3 11.3 9.7 90 0.8 CALM 0 7 0 4 1024.6 1024.6 0.0
20/06:30am 12.5 12.8 11.0 90 0.8 CALM 0 0 0 0 1024.6 1024.6 0.0
20/06:00am 12.9 13.4 11.6 92 0.7 CALM 0 0 0 0 1024.5 1024.5 0.0
20/05:30am 12.2 10.8 11.0 92 0.6 N 9 11 5 6 1024.4 1024.4 0.0
20/05:00am 12.7 11.9 11.8 94 0.5 NNE 7 9 4 5 1024.3 1024.3 0.0
20/04:30am 13.0 12.2 11.7 92 0.7 NW 7 9 4 5 1024.4 1024.4 0.0
20/04:00am 12.7 11.9 11.6 93 0.6 WNW 7 11 4 6 1024.6 1024.6 0.0
20/03:30am 13.1 12.4 12.0 93 0.6 WNW 7 11 4 6 1024.7 1024.7 0.0
20/03:00am 13.3 12.8 12.2 93 0.6 NNW 6 7 3 4 1024.8 1024.8 0.0
20/02:30am 14.0 12.4 12.9 93 0.6 N 13 20 7 11 1025.1 1025.1 0.0
20/02:00am 14.4 12.5 12.9 91 0.8 N 15 22 8 12 1025.2 1025.2 0.0
20/01:30am 14.9 12.3 13.1 89 1.0 NNE 19 22 10 12 1025.4 1025.4 0.0
20/01:00am 15.3 12.5 13.1 87 1.2 NNE 20 24 11 13 1025.6 1025.6 0.0
20/12:30am 15.2 12.5 13.6 90 0.9 NNE 20 24 11 13 1025.9 1025.9 0.0
20/12:00am 14.1 13.7 12.4 89 0.9 NNE 6 7 3 4 1026.2 1026.2 0.0
 
Date/Time
EST
Temp
°C
App
Temp
°C
Dew
Point
°C
Rel
Hum
%
Delta-T
°C
Wind Press
QNH
hPa
Press
MSL
hPa
Rain since
9am
mm
Dir  Spd
km/h
Gust
km/h
Spd
kts
Gust
kts
19/11:30pm 14.3 13.9 13.0 92 0.7 NNE 7 9 4 5 1026.5 1026.5 0.0
19/11:00pm 15.0 13.8 13.9 93 0.6 NNE 13 15 7 8 1026.7 1026.7 0.0
19/10:30pm 15.2 14.8 14.1 93 0.6 NNE 9 15 5 8 1026.9 1026.9 0.0
19/10:00pm 15.4 14.1 13.6 89 1.0 NNE 13 17 7 9 1027.1 1027.1 0.0
19/09:30pm 16.1 13.8 14.0 87 1.2 N 19 24 10 13 1027.1 1027.1 0.0
19/09:00pm 15.4 13.4 13.8 90 0.9 NNE 17 19 9 10 1027.2 1027.2 0.0
19/08:30pm 14.9 14.7 13.5 91 0.8 NNW 7 11 4 6 1027.5 1027.5 0.0
19/08:00pm 14.6 13.5 13.1 91 0.8 N 11 13 6 7 1027.6 1027.6 0.0
19/07:30pm 15.3 13.6 13.5 89 1.0 NNE 15 20 8 11 1027.4 1027.4 0.0
19/07:00pm 15.3 13.9 13.3 88 1.1 NNE 13 19 7 10 1027.6 1027.6 0.0
19/06:30pm 15.8 13.2 13.3 85 1.4 NNE 19 24 10 13 1027.4 1027.4 0.0
19/06:00pm 15.8 13.7 13.5 86 1.3 NNE 17 20 9 11 1027.3 1027.3 0.0
19/05:30pm 15.5 14.7 13.0 85 1.4 NNE 9 13 5 7 1027.2 1027.2 0.0
19/05:00pm 15.4 14.6 12.8 84 1.4 N 9 13 5 7 1027.4 1027.4 0.0
19/04:30pm 16.1 14.7 13.4 84 1.5 N 13 17 7 9 1027.3 1027.3 0.0
19/04:00pm 16.6 14.2 13.8 83 1.6 NNE 19 20 10 11 1027.2 1027.2 0.0
19/03:30pm 17.0 13.8 14.2 83 1.6 NNE 24 32 13 17 1027.2 1027.2 0.0
19/03:00pm 17.5 13.3 13.4 77 2.3 NNE 28 35 15 19 1026.8 1026.8 0.0
19/02:30pm 17.8 13.7 13.9 78 2.2 NE 28 32 15 17 1026.9 1026.9 0.0
19/02:00pm 17.4 13.2 13.5 78 2.2 NNE 28 32 15 17 1027.3 1027.3 0.0
19/01:30pm 17.5 13.3 13.4 77 2.3 NNE 28 35 15 19 1027.5 1027.5 0.0
19/01:00pm 17.6 13.5 13.9 79 2.1 NE 28 35 15 19 1027.8 1027.8 0.0
19/12:30pm 17.3 12.7 13.6 79 2.1 NE 30 35 16 19 1028.1 1028.1 0.0
19/12:00pm 17.5 13.4 13.8 79 2.1 NE 28 35 15 19 1028.7 1028.7 0.0
19/11:30am 17.4 13.6 13.7 79 2.1 NE 26 32 14 17 1029.5 1029.5 0.0
19/11:00am 17.0 12.8 13.6 80 1.9 NE 28 33 15 18 1029.9 1029.9 0.0
19/10:30am 16.9 13.1 13.7 81 1.8 NE 26 32 14 17 1030.2 1030.2 0.0
19/10:00am 16.7 14.2 13.5 81 1.8 NE 19 22 10 12 1030.5 1030.5 0.0
19/09:30am 15.8 15.3 12.7 82 1.7 NE 7 11 4 6 1031.0 1031.0 0.0
19/09:00am 14.4 13.4 12.2 87 1.2 NNE 9 11 5 6 1031.0 1031.0 0.2
19/08:30am 13.7 12.6 11.8 88 1.0 NE 9 13 5 7 1030.8 1030.8 0.2
19/08:00am 12.5 11.8 11.4 93 0.6 N 6 9 3 5 1031.0 1031.0 0.2
19/07:30am 10.8 9.5 9.8 93 0.5 NNW 7 9 4 5 1031.0 1031.0 0.2

Other formats

Comma delimited format used in spreadsheet applications
http://www.bom.gov.au/fwo/IDN60801/IDN60801.94933.axf

JavaScript Object Notation format (JSON) in row-major order
http://www.bom.gov.au/fwo/IDN60801/IDN60801.94933.json

Data quality

Most of these data are generated automatically and are frequently updated. Quality checks on data are not normally performed. It is possible for incorrect values to appear. Refer to information at About Latest Weather Observations and please check the disclaimer before using these data.